Mr Thomas — WDD7163 — position and weather

sailwx.info

Track history (hours):
 
Tides and Currents Weather Stations Pressure Air Temp Water Temp Dewpoint Dewpoint Depression Visibility Wind Speed Wind Dir Waves Ship Positions

Mr Thomas

Owner: CENTRAL BOAT RENTALS, BERWICK, LA. More information available from US FCC via Universal Licensing System and Coast Guard Vessel Documentation Center.

Last reported at 2016-Jun-25 04:33 UTC. Time now 2016-Jun-25 05:16 UTC.
Position N 29°26' W 090°43'.

Length 21 m; draft 2.5 m.

Type: Tug. MMSI: 367182730.

Date/timePositionNaut miles runAvg speedWind from/ knotsBaromVisibWave heightAir tempDewpointWater temp
2016-Jun-25 04:33N 29°26' W 090°43'5 1.8
2016-Jun-25 01:31N 29°20' W 090°44'2 0.0
2016-Jun-23 08:25N 29°22' W 090°44'6 7.5
2016-Jun-23 07:34N 29°28' W 090°43'8 4.0
2016-Jun-23 05:33N 29°36' W 090°40'7 6.7
2016-Jun-23 04:33N 29°34' W 090°33'29 5.6
2016-Jun-22 23:24N 29°47' W 090°04'5 5.4
2016-Jun-22 22:32N 29°52' W 090°04'0 0.0
2016-Jun-22 21:33N 29°52' W 090°04'0 0.0
2016-Jun-22 20:27N 29°52' W 090°04'0 0.0
2016-Jun-22 19:33N 29°52' W 090°04'0 0.0
2016-Jun-22 16:33N 29°52' W 090°04'0 0.0
2016-Jun-22 14:33N 29°52' W 090°04'0 0.0
2016-Jun-22 13:33N 29°52' W 090°04'1 0.8
2016-Jun-22 12:15N 29°51' W 090°04'0 0.0
2016-Jun-22 11:33N 29°51' W 090°04'0 0.0
2016-Jun-22 10:24N 29°51' W 090°04'0 0.0
2016-Jun-22 09:27N 29°51' W 090°04'0 0.0
2016-Jun-22 08:21N 29°51' W 090°04'0 0.0
2016-Jun-22 07:33N 29°51' W 090°04'0 0.0
2016-Jun-22 06:30N 29°51' W 090°04'1 1.0
2016-Jun-22 05:29N 29°52' W 090°04'7 4.9
2016-Jun-22 04:08N 29°46' W 090°07'24 6.1
2016-Jun-22 00:15N 29°34' W 090°30'5 7.5
2016-Jun-21 23:33N 29°35' W 090°36'6 5.7
2016-Jun-21 22:33N 29°36' W 090°43'6 5.9
2016-Jun-21 21:33N 29°32' W 090°47'2 0.2
2016-Jun-21 12:33N 29°32' W 090°50'4 4.1
2016-Jun-21 11:33N 29°33' W 090°45'2 2.3
2016-Jun-21 10:32N 29°34' W 090°43'4 3.7
2016-Jun-21 09:32N 29°30' W 090°43'4 3.6
2016-Jun-21 08:24N 29°26' W 090°43'4 4.0
2016-Jun-21 07:32N 29°23' W 090°44'2 0.1
2016-Jun-20 16:33N 29°25' W 090°44'7 7.2
2016-Jun-20 15:33N 29°32' W 090°42'2 2.4
2016-Jun-20 14:34N 29°34' W 090°43'7 7.1
2016-Jun-20 13:33N 29°32' W 090°51'  
Track history (hours):
 
Tides and Currents Weather Stations Pressure Air Temp Water Temp Dewpoint Dewpoint Depression Visibility Wind Speed Wind Dir Waves Ship Positions

Mr Thomas

Owner: CENTRAL BOAT RENTALS, BERWICK, LA. More information available from US FCC via Universal Licensing System and Coast Guard Vessel Documentation Center.

Last reported at 2016-Jun-25 04:33 UTC. Time now 2016-Jun-25 05:16 UTC.
Position N 29°26' W 090°43'.

Length 21 m; draft 2.5 m.

Type: Tug. MMSI: 367182730.

Date/timePositionNaut miles runAvg speedWind from/ knotsBaromVisibWave heightAir tempDewpointWater temp
2016-Jun-25 04:33N 29°26' W 090°43'5 1.8
2016-Jun-25 01:31N 29°20' W 090°44'2 0.0
2016-Jun-23 08:25N 29°22' W 090°44'6 7.5
2016-Jun-23 07:34N 29°28' W 090°43'8 4.0
2016-Jun-23 05:33N 29°36' W 090°40'7 6.7
2016-Jun-23 04:33N 29°34' W 090°33'29 5.6
2016-Jun-22 23:24N 29°47' W 090°04'5 5.4
2016-Jun-22 22:32N 29°52' W 090°04'0 0.0
2016-Jun-22 21:33N 29°52' W 090°04'0 0.0
2016-Jun-22 20:27N 29°52' W 090°04'0 0.0
2016-Jun-22 19:33N 29°52' W 090°04'0 0.0
2016-Jun-22 16:33N 29°52' W 090°04'0 0.0
2016-Jun-22 14:33N 29°52' W 090°04'0 0.0
2016-Jun-22 13:33N 29°52' W 090°04'1 0.8
2016-Jun-22 12:15N 29°51' W 090°04'0 0.0
2016-Jun-22 11:33N 29°51' W 090°04'0 0.0
2016-Jun-22 10:24N 29°51' W 090°04'0 0.0
2016-Jun-22 09:27N 29°51' W 090°04'0 0.0
2016-Jun-22 08:21N 29°51' W 090°04'0 0.0
2016-Jun-22 07:33N 29°51' W 090°04'0 0.0
2016-Jun-22 06:30N 29°51' W 090°04'1 1.0
2016-Jun-22 05:29N 29°52' W 090°04'7 4.9
2016-Jun-22 04:08N 29°46' W 090°07'24 6.1
2016-Jun-22 00:15N 29°34' W 090°30'5 7.5
2016-Jun-21 23:33N 29°35' W 090°36'6 5.7
2016-Jun-21 22:33N 29°36' W 090°43'6 5.9
2016-Jun-21 21:33N 29°32' W 090°47'2 0.2
2016-Jun-21 12:33N 29°32' W 090°50'4 4.1
2016-Jun-21 11:33N 29°33' W 090°45'2 2.3
2016-Jun-21 10:32N 29°34' W 090°43'4 3.7
2016-Jun-21 09:32N 29°30' W 090°43'4 3.6
2016-Jun-21 08:24N 29°26' W 090°43'4 4.0
2016-Jun-21 07:32N 29°23' W 090°44'2 0.1
2016-Jun-20 16:33N 29°25' W 090°44'7 7.2
2016-Jun-20 15:33N 29°32' W 090°42'2 2.4
2016-Jun-20 14:34N 29°34' W 090°43'7 7.1
2016-Jun-20 13:33N 29°32' W 090°51'  

Dump ship's entire track history